Terminal Aerodrome Forecast
Issued by NWS Sterling, VA

Home | Current Version | Previous Version | Text Only | Print | Product List | Glossary On
Versions: 1 2 3 4 5 6 7 8 9 10 11 12 13 14 15 16 17 18 19 20 21 22 23
000
FTUS41 KLWX 231125
TAFBWI
TAF
KBWI 231125Z 2312/2418 23012KT 5SM -SHRA SCT015 OVC060
     FM231400 22011KT P6SM SCT015 OVC025
     FM231600 23012G20KT P6SM BKN050
     FM231800 23012G22KT P6SM VCTS BKN050CB BKN100
     FM232300 22012G21KT P6SM BKN050 BKN100
     FM240300 22010KT 6SM -SHRA BKN050
     FM240800 18010KT 3SM +SHRA OVC015
     FM241200 30009KT 4SM SHRA OVC025
     FM241500 28011G19KT P6SM OVC040=

USA.gov is the U.S. government's official web portal to all federal, state and local government web resources and services.